Isabella, Tennessee
Current Conditions -  °F | °C
As of 1:15 PM on Tuesday 21 Oct 2014 (Local Time) from KRZR Reporting Station
Few Clouds Few Clouds  
Wind Chill: 66°   Ceiling: Unl
Heat Index: 66°   Visibility: 10mi
Dew Point: 45°   Wind: 9mph
Humidity: 46%   Direction: 330°NNW
Pressure: 30.04"   Gusts: NA
Location:  35.0276°N, 84.3551°W
Report Text: KRZR 211715Z AUTO 33008KT 290V010 10SM FEW045 19/07 A3004 RMK
Loading
Personal Weather Stations






























Interactive Weather Map New forecast layout! Learn more

10-Day Weather Forecast

Advertisements
Track Severe Weather on mobile